Terminal Aerodrome Forecast
Issued by NWS Wilmington, OH

Current Version | Previous Version | Graphics & Text | Print | Product List | Glossary On
Versions: 1 2 3 4 5 6 7 8 9 10 11 12 13 14 15 16 17 18 19 20 21 22 23 24 25
000
FTUS41 KILN 250544
TAFCMH
TAF
KCMH 250544Z 2506/2606 25010KT P6SM VCTS SCT025 BKN040CB
      TEMPO 2506/2510 5SM -TSRA BR OVC025CB
     FM251200 22008KT P6SM SCT040 BKN250
     FM251600 23010G18KT P6SM SCT040
     FM260000 28007KT P6SM SCT050 BKN250
     FM260300 32006KT P6SM SCT050 BKN250=

USA.gov is the U.S. government's official web portal to all federal, state and local government web resources and services.